Time;durP1;ratioP1;P1;durP2;ratioP2;P2;SDS_P1;SDS_P2;PMS_P1;PMS_P2;Temp;Humidity;BMP_temperature;BMP_pressure;BME280_temperature;BME280_humidity;BME280_pressure;Samples;Min_cycle;Max_cycle;Signal;HPM_P1;HPM_P2
2022/04/23 00:01:51;;;;;;;44.43;26.60;;;12.50;96.80;;;;;;4983533;28;20553;-70
2022/04/23 00:04:19;;;;;;;47.17;26.63;;;12.40;96.80;;;;;;4984893;28;20668;-70
2022/04/23 00:06:46;;;;;;;44.07;26.37;;;12.40;96.80;;;;;;4993140;28;20208;-71
2022/04/23 00:09:13;;;;;;;57.37;26.10;;;12.30;96.80;;;;;;4996431;28;20250;-70
2022/04/23 00:11:40;;;;;;;41.70;24.67;;;12.20;96.80;;;;;;4980514;28;20225;-70
2022/04/23 00:14:08;;;;;;;37.33;24.10;;;12.20;96.80;;;;;;4992712;28;20246;-70
2022/04/23 00:16:36;;;;;;;38.73;22.20;;;12.10;96.80;;;;;;4989680;28;20289;-70
2022/04/23 00:19:04;;;;;;;31.10;21.73;;;12.10;96.90;;;;;;4970488;28;20248;-70
2022/04/23 00:21:31;;;;;;;34.13;21.53;;;12.10;96.90;;;;;;4971613;28;20277;-70
2022/04/23 00:23:58;;;;;;;24.13;17.73;;;12.00;96.80;;;;;;4990129;28;20266;-71
2022/04/23 00:26:25;;;;;;;25.33;19.03;;;12.00;97.00;;;;;;4992629;28;20672;-71
2022/04/23 00:28:53;;;;;;;20.30;16.23;;;12.00;97.00;;;;;;4984384;28;20251;-71
2022/04/23 00:31:21;;;;;;;21.87;15.93;;;12.00;97.00;;;;;;4990774;28;20535;-71
2022/04/23 00:33:48;;;;;;;21.77;14.33;;;12.00;97.10;;;;;;4968245;28;20281;-71
2022/04/23 00:36:15;;;;;;;18.93;13.90;;;12.00;97.10;;;;;;4987598;28;20258;-71
2022/04/23 00:38:44;;;;;;;15.03;12.33;;;12.00;97.20;;;;;;4971498;28;20306;-71
2022/04/23 00:41:45;;;;;;;16.53;12.40;;;12.00;97.20;;;;;;4972370;28;20222;-70
2022/04/23 00:44:02;;;;;;;13.23;11.17;;;12.00;97.20;;;;;;4989794;28;20312;-70
2022/04/23 00:46:29;;;;;;;14.20;10.73;;;12.00;97.20;;;;;;4984761;28;20268;-70
2022/04/23 00:48:58;;;;;;;12.10;10.00;;;12.00;97.20;;;;;;4965687;28;20227;-70
2022/04/23 00:51:29;;;;;;;12.97;10.53;;;12.00;97.10;;;;;;4970747;28;20217;-70
2022/04/23 00:53:58;;;;;;;12.33;9.67;;;12.00;97.00;;;;;;4980576;28;20223;-70
2022/04/23 00:56:26;;;;;;;11.43;9.40;;;12.00;96.90;;;;;;4980930;28;20220;-70
2022/04/23 00:58:53;;;;;;;14.13;9.83;;;11.90;96.90;;;;;;4962727;28;20215;-70
2022/04/23 01:01:23;;;;;;;11.63;8.83;;;11.90;96.90;;;;;;4971161;28;20287;-71
2022/04/23 01:03:53;;;;;;;9.27;8.30;;;11.90;96.90;;;;;;4978651;28;20560;-71
2022/04/23 01:06:23;;;;;;;9.53;7.80;;;11.90;96.90;;;;;;4956373;28;20646;-71
2022/04/23 01:08:51;;;;;;;9.50;7.47;;;11.80;96.90;;;;;;4978355;28;20219;-71
2022/04/23 01:11:18;;;;;;;10.40;8.17;;;11.80;97.00;;;;;;4994390;28;20243;-71
2022/04/23 01:13:46;;;;;;;8.90;7.50;;;11.80;97.00;;;;;;4992511;28;20208;-71
2022/04/23 01:16:13;;;;;;;9.50;8.00;;;11.80;97.00;;;;;;4959431;28;20206;-71
2022/04/23 01:18:42;;;;;;;8.53;7.40;;;11.80;97.00;;;;;;4969014;28;20205;-71
2022/04/23 01:21:10;;;;;;;7.87;6.67;;;11.70;96.90;;;;;;4993133;28;20535;-71
2022/04/23 01:23:41;;;;;;;9.07;7.70;;;11.70;96.90;;;;;;4990884;28;20751;-71
2022/04/23 01:26:10;;;;;;;7.80;6.80;;;11.70;96.80;;;;;;4987591;28;20222;-71
2022/04/23 01:28:38;;;;;;;10.13;7.40;;;11.70;96.80;;;;;;4971014;28;20203;-71
2022/04/23 01:31:06;;;;;;;10.00;7.87;;;11.60;96.80;;;;;;4985899;28;20211;-71
2022/04/23 01:33:34;;;;;;;7.77;6.83;;;11.60;96.80;;;;;;4988245;28;20685;-71
2022/04/23 01:36:02;;;;;;;8.63;7.00;;;11.60;96.80;;;;;;4972329;28;20252;-70
2022/04/23 01:38:29;;;;;;;9.20;8.03;;;11.50;96.80;;;;;;4983886;28;20226;-69
2022/04/23 01:40:57;;;;;;;10.43;8.00;;;11.50;96.80;;;;;;4988664;28;20309;-69
2022/04/23 01:43:24;;;;;;;7.87;7.07;;;11.50;97.10;;;;;;4993829;28;20211;-69
2022/04/23 01:45:51;;;;;;;10.80;7.73;;;11.50;96.90;;;;;;4970751;28;20601;-69
2022/04/23 01:48:18;;;;;;;9.80;7.03;;;11.50;96.90;;;;;;4983723;28;20211;-69
2022/04/23 01:50:45;;;;;;;7.90;7.10;;;11.40;96.80;;;;;;4977459;28;20229;-70
2022/04/23 01:53:13;;;;;;;9.10;7.47;;;11.50;97.10;;;;;;4977274;28;20226;-69
2022/04/23 01:55:40;;;;;;;10.13;8.20;;;11.40;96.80;;;;;;4976995;28;20572;-70
2022/04/23 01:58:07;;;;;;;9.70;7.10;;;11.40;96.80;;;;;;4974792;28;20593;-70
2022/04/23 02:00:36;;;;;;;9.63;7.03;;;11.40;96.90;;;;;;4977943;28;20309;-70
2022/04/23 02:03:04;;;;;;;11.13;7.00;;;11.40;96.90;;;;;;4991363;28;20200;-70
2022/04/23 02:05:32;;;;;;;11.87;6.80;;;11.30;96.80;;;;;;4991056;28;20332;-70
2022/04/23 02:07:59;;;;;;;6.43;5.80;;;11.30;96.80;;;;;;4973616;28;20589;-70
2022/04/23 02:10:26;;;;;;;8.47;6.53;;;11.30;96.80;;;;;;4989431;28;20322;-70
2022/04/23 02:12:54;;;;;;;11.30;7.37;;;11.20;96.70;;;;;;4988402;28;20212;-70
2022/04/23 02:15:22;;;;;;;8.50;6.67;;;11.20;96.70;;;;;;4984433;28;20205;-69
2022/04/23 02:17:50;;;;;;;6.83;6.13;;;11.10;96.70;;;;;;4985160;28;20265;-70
2022/04/23 02:20:17;;;;;;;6.90;5.60;;;11.10;96.60;;;;;;4968138;28;20568;-69
2022/04/23 02:22:45;;;;;;;8.03;6.37;;;11.10;96.60;;;;;;4970413;28;20223;-69
2022/04/23 02:25:15;;;;;;;6.73;6.07;;;11.00;96.60;;;;;;4988704;28;20296;-69
2022/04/23 02:27:49;;;;;;;7.80;6.30;;;11.00;96.60;;;;;;4983019;28;20279;-70
2022/04/23 02:30:19;;;;;;;6.07;4.83;;;11.00;96.70;;;;;;4986554;28;20262;-70
2022/04/23 02:32:47;;;;;;;11.17;4.93;;;11.00;96.70;;;;;;4992535;28;20673;-70
2022/04/23 02:35:16;;;;;;;39.07;4.93;;;10.90;96.80;;;;;;4970976;28;20232;-71
2022/04/23 02:37:47;;;;;;;5.00;4.30;;;10.90;96.70;;;;;;4971931;28;20222;-70
2022/04/23 02:40:16;;;;;;;8.57;4.57;;;10.90;96.70;;;;;;4977954;28;20234;-70
2022/04/23 02:42:44;;;;;;;8.20;6.87;;;10.90;96.70;;;;;;4966509;28;20205;-70
2022/04/23 02:45:16;;;;;;;6.90;5.97;;;10.80;96.60;;;;;;4968750;28;20242;-70
2022/04/23 02:47:53;;;;;;;8.97;5.90;;;10.80;96.80;;;;;;4970628;28;20293;-70
2022/04/23 02:50:30;;;;;;;7.30;6.37;;;10.80;96.80;;;;;;4975675;28;20315;-70
2022/04/23 02:52:59;;;;;;;11.20;6.20;;;10.80;96.90;;;;;;4979378;28;20233;-70
2022/04/23 02:55:28;;;;;;;46.40;7.17;;;10.80;96.90;;;;;;4992834;28;20668;-69
2022/04/23 02:57:58;;;;;;;26.40;8.20;;;10.80;96.80;;;;;;4975621;28;20600;-69
2022/04/23 03:00:25;;;;;;;10.33;8.43;;;10.70;96.70;;;;;;4980063;28;20248;-69
2022/04/23 03:02:52;;;;;;;9.47;7.57;;;10.70;96.80;;;;;;4985264;28;20217;-68
2022/04/23 03:05:20;;;;;;;11.47;8.00;;;10.70;96.90;;;;;;4993803;28;20329;-69
2022/04/23 03:07:48;;;;;;;9.90;8.10;;;10.70;96.80;;;;;;4988295;28;20230;-69
2022/04/23 03:10:17;;;;;;;8.93;7.90;;;10.60;96.70;;;;;;4987764;28;20629;-69
2022/04/23 03:12:45;;;;;;;9.90;7.83;;;10.60;96.80;;;;;;4973336;28;20622;-71
2022/04/23 03:15:16;;;;;;;12.00;8.90;;;10.60;96.70;;;;;;4973625;28;20241;-71
2022/04/23 03:17:45;;;;;;;11.23;9.20;;;10.50;96.60;;;;;;4988827;28;20313;-70
2022/04/23 03:20:12;;;;;;;8.87;7.97;;;10.50;96.50;;;;;;4987342;28;20209;-70
2022/04/23 03:22:41;;;;;;;8.97;7.47;;;10.50;96.60;;;;;;4986939;28;20645;-69
2022/04/23 03:25:12;;;;;;;10.17;7.90;;;10.50;96.60;;;;;;4970134;28;20245;-69
2022/04/23 03:27:39;;;;;;;10.57;7.17;;;10.40;96.60;;;;;;4997406;28;20203;-69
2022/04/23 03:30:07;;;;;;;9.40;7.27;;;10.40;96.60;;;;;;4967501;28;20265;-69
2022/04/23 03:32:35;;;;;;;7.77;6.93;;;10.40;96.60;;;;;;4969332;28;20233;-69
2022/04/23 03:35:05;;;;;;;8.27;6.80;;;10.40;96.60;;;;;;4967011;28;20222;-69
2022/04/23 03:37:36;;;;;;;9.20;7.43;;;10.30;96.60;;;;;;4989123;28;20217;-69
2022/04/23 03:40:07;;;;;;;11.57;8.07;;;10.40;96.60;;;;;;4983379;28;20239;-69
2022/04/23 03:42:35;;;;;;;8.60;6.97;;;10.40;96.60;;;;;;4987291;28;20511;-69
2022/04/23 03:45:06;;;;;;;8.97;7.80;;;10.40;96.30;;;;;;4961250;28;20260;-69
2022/04/23 03:47:34;;;;;;;9.43;8.13;;;10.30;96.30;;;;;;4980069;28;20217;-69
2022/04/23 03:50:06;;;;;;;8.67;7.53;;;10.30;96.30;;;;;;4954982;28;20704;-69
2022/04/23 03:52:34;;;;;;;10.73;8.60;;;10.30;96.50;;;;;;4967374;28;20222;-69
2022/04/23 03:55:02;;;;;;;8.50;7.13;;;10.30;96.70;;;;;;4970057;28;20210;-69
2022/04/23 03:57:31;;;;;;;8.33;7.10;;;10.30;96.80;;;;;;4986251;28;20249;-69
2022/04/23 04:00:02;;;;;;;9.20;7.10;;;10.30;96.80;;;;;;4969796;28;20276;-69
2022/04/23 04:02:30;;;;;;;7.70;6.97;;;10.30;96.80;;;;;;4987331;28;20606;-69
2022/04/23 04:04:57;;;;;;;7.83;6.40;;;10.30;96.70;;;;;;4997873;28;20236;-69
2022/04/23 04:07:25;;;;;;;8.13;6.93;;;10.30;96.70;;;;;;4965690;28;20212;-69
2022/04/23 04:09:52;;;;;;;8.63;7.07;;;10.30;96.70;;;;;;4989999;28;20240;-69
2022/04/23 04:12:20;;;;;;;9.47;6.83;;;10.30;96.70;;;;;;4991342;28;20629;-71
2022/04/23 04:14:49;;;;;;;9.27;7.33;;;10.20;96.70;;;;;;4995264;28;20284;-71
2022/04/23 04:17:16;;;;;;;8.87;6.97;;;10.30;96.70;;;;;;4994527;28;20210;-71
2022/04/23 04:19:44;;;;;;;10.97;7.30;;;10.20;96.60;;;;;;4996366;28;20197;-71
2022/04/23 04:22:11;;;;;;;7.47;6.67;;;10.20;96.60;;;;;;4993562;28;20240;-70
2022/04/23 04:24:40;;;;;;;10.50;7.07;;;10.20;96.70;;;;;;4971023;28;20225;-70
2022/04/23 04:27:08;;;;;;;8.93;7.00;;;10.20;96.70;;;;;;4979566;28;20254;-71
2022/04/23 04:29:35;;;;;;;8.63;6.67;;;10.30;96.70;;;;;;4993685;28;20231;-70
2022/04/23 04:32:03;;;;;;;8.70;6.80;;;10.30;96.60;;;;;;4989956;28;20209;-70
2022/04/23 04:34:31;;;;;;;11.90;7.63;;;10.30;96.60;;;;;;4989327;28;20223;-70
2022/04/23 04:37:04;;;;;;;8.07;6.83;;;10.30;96.70;;;;;;4993338;28;20239;-70
2022/04/23 04:39:32;;;;;;;13.13;7.70;;;10.30;96.70;;;;;;4974257;28;20294;-71
2022/04/23 04:41:59;;;;;;;9.67;8.37;;;10.30;96.80;;;;;;4987984;28;20223;-70
2022/04/23 04:44:27;;;;;;;10.50;7.40;;;10.40;96.80;;;;;;4994069;28;20204;-72
2022/04/23 04:46:54;;;;;;;11.10;7.90;;;10.40;96.80;;;;;;4991556;28;20211;-70
2022/04/23 04:49:25;;;;;;;11.77;8.27;;;10.40;96.90;;;;;;4985736;28;20355;-71
2022/04/23 04:51:53;;;;;;;10.73;7.93;;;10.50;96.90;;;;;;4989389;28;20271;-71
2022/04/23 04:54:23;;;;;;;8.87;7.97;;;10.50;96.90;;;;;;4970379;28;20221;-71
2022/04/23 04:56:52;;;;;;;9.57;7.30;;;10.60;97.00;;;;;;4990772;28;20240;-71
2022/04/23 04:59:23;;;;;;;11.43;7.40;;;10.60;96.90;;;;;;4986151;28;20209;-71
2022/04/23 05:01:52;;;;;;;7.37;6.63;;;10.60;96.90;;;;;;4990031;28;20233;-71
2022/04/23 05:04:20;;;;;;;10.97;6.90;;;10.60;96.80;;;;;;4988556;28;20216;-70
2022/04/23 05:06:48;;;;;;;10.53;7.43;;;10.60;96.80;;;;;;4990559;28;20292;-70
2022/04/23 05:09:15;;;;;;;9.57;8.20;;;10.70;96.70;;;;;;4980675;28;20275;-70
2022/04/23 05:11:42;;;;;;;11.27;7.80;;;10.70;96.70;;;;;;4988463;28;20215;-70
2022/04/23 05:14:10;;;;;;;10.67;8.60;;;10.70;96.70;;;;;;4973610;28;20228;-70
2022/04/23 05:16:37;;;;;;;13.27;10.23;;;10.80;96.80;;;;;;4987558;28;20616;-71
2022/04/23 05:19:05;;;;;;;12.50;9.57;;;10.80;96.80;;;;;;4992763;28;20206;-71
2022/04/23 05:21:32;;;;;;;13.27;11.17;;;10.80;96.70;;;;;;4992200;28;20497;-71
2022/04/23 05:24:00;;;;;;;12.77;9.27;;;10.80;96.80;;;;;;4976652;28;20297;-71
2022/04/23 05:26:27;;;;;;;13.20;9.83;;;10.90;96.80;;;;;;4970563;28;20679;-71
2022/04/23 05:28:55;;;;;;;16.60;10.87;;;11.00;96.90;;;;;;4989143;28;20578;-70
2022/04/23 05:31:23;;;;;;;14.53;10.87;;;11.00;97.00;;;;;;4989159;28;20218;-71
2022/04/23 05:33:51;;;;;;;15.80;10.07;;;11.10;97.00;;;;;;4988912;28;20274;-72
2022/04/23 05:36:18;;;;;;;18.67;11.50;;;11.10;96.90;;;;;;4993835;28;20206;-70
2022/04/23 05:38:45;;;;;;;16.77;12.53;;;11.20;96.90;;;;;;4971603;28;20241;-70
2022/04/23 05:41:13;;;;;;;17.70;12.13;;;11.20;96.90;;;;;;4970253;28;20585;-73
2022/04/23 05:43:41;;;;;;;12.77;11.20;;;11.30;96.90;;;;;;4994439;28;20618;-71
2022/04/23 05:46:08;;;;;;;14.00;11.00;;;11.30;96.90;;;;;;4986307;28;20266;-71
2022/04/23 05:48:41;;;;;;;11.47;10.03;;;11.40;96.90;;;;;;4988183;28;20213;-71
2022/04/23 05:51:09;;;;;;;13.63;11.10;;;11.40;96.70;;;;;;4987779;28;20203;-71
2022/04/23 05:53:36;;;;;;;14.03;10.73;;;11.50;96.50;;;;;;4953877;28;20283;-71
2022/04/23 05:56:03;;;;;;;10.90;9.60;;;11.50;96.30;;;;;;4986030;28;20266;-74
2022/04/23 05:58:34;;;;;;;12.47;10.50;;;11.50;96.40;;;;;;4984053;28;20710;-71
2022/04/23 06:01:02;;;;;;;12.80;10.47;;;11.60;96.40;;;;;;4975283;28;20319;-70
2022/04/23 06:03:29;;;;;;;13.23;10.53;;;11.60;96.30;;;;;;4985377;28;20227;-70
2022/04/23 06:05:57;;;;;;;13.23;11.30;;;11.60;96.30;;;;;;4969818;28;20316;-69
2022/04/23 06:08:24;;;;;;;15.20;11.67;;;11.70;96.50;;;;;;4984692;28;20240;-69
2022/04/23 06:10:51;;;;;;;16.37;12.97;;;11.70;96.60;;;;;;4984894;28;20256;-70
2022/04/23 06:13:18;;;;;;;16.30;12.70;;;11.80;96.70;;;;;;4969270;28;20214;-69
2022/04/23 06:15:45;;;;;;;18.63;13.20;;;11.90;96.70;;;;;;4969777;28;20708;-69
2022/04/23 06:18:12;;;;;;;15.47;13.23;;;12.00;96.70;;;;;;4968564;28;20256;-69
2022/04/23 06:20:40;;;;;;;14.80;12.17;;;12.10;96.80;;;;;;4983101;28;20293;-69
2022/04/23 06:23:07;;;;;;;16.23;14.20;;;12.30;96.80;;;;;;4964028;28;20217;-69
2022/04/23 06:25:35;;;;;;;13.27;11.87;;;12.40;96.90;;;;;;4981148;28;20231;-70
2022/04/23 06:28:02;;;;;;;15.10;12.53;;;12.60;96.90;;;;;;4990906;28;20234;-69
2022/04/23 06:30:29;;;;;;;17.77;11.83;;;12.80;96.90;;;;;;4985255;28;20205;-69
2022/04/23 06:32:56;;;;;;;14.87;12.70;;;13.00;96.80;;;;;;4983742;28;20287;-71
2022/04/23 06:35:24;;;;;;;20.47;12.13;;;13.20;96.70;;;;;;4984611;28;20708;-71
2022/04/23 06:37:51;;;;;;;15.03;12.00;;;13.30;96.10;;;;;;4970840;28;20217;-72
2022/04/23 06:40:18;;;;;;;10.77;9.67;;;13.50;96.00;;;;;;4990631;28;20229;-71
2022/04/23 06:42:45;;;;;;;10.70;9.60;;;13.70;96.20;;;;;;4989360;28;20218;-71
2022/04/23 06:45:13;;;;;;;9.90;8.80;;;13.90;96.10;;;;;;4980233;28;20219;-70
2022/04/23 06:47:40;;;;;;;9.27;8.37;;;14.10;96.10;;;;;;4992714;28;20199;-70
2022/04/23 06:50:08;;;;;;;9.20;8.23;;;14.30;95.60;;;;;;4989043;28;20683;-69
2022/04/23 06:52:35;;;;;;;10.33;7.63;;;14.40;95.10;;;;;;4989929;28;20229;-69
2022/04/23 06:55:04;;;;;;;7.93;7.23;;;14.60;94.80;;;;;;4987679;28;20214;-69
2022/04/23 06:57:31;;;;;;;7.93;7.13;;;14.80;94.50;;;;;;4989484;28;20245;-69
2022/04/23 07:00:02;;;;;;;7.37;6.67;;;15.00;94.30;;;;;;4995933;28;20248;-70
2022/04/23 07:02:29;;;;;;;7.17;6.47;;;15.20;93.70;;;;;;4989010;28;20201;-70
2022/04/23 07:04:58;;;;;;;6.63;6.03;;;15.30;93.30;;;;;;4987990;28;20218;-70
2022/04/23 07:07:25;;;;;;;9.00;6.50;;;15.50;93.20;;;;;;4988834;28;20223;-70
2022/04/23 07:09:52;;;;;;;6.10;5.57;;;15.50;93.00;;;;;;4990555;28;20261;-70
2022/04/23 07:12:19;;;;;;;6.70;6.10;;;15.70;93.00;;;;;;4990976;28;20208;-71
2022/04/23 07:14:47;;;;;;;6.57;5.97;;;15.90;92.60;;;;;;4989803;28;20578;-71
2022/04/23 07:17:15;;;;;;;6.50;5.73;;;16.10;92.40;;;;;;4971467;28;20547;-71
2022/04/23 07:19:42;;;;;;;5.77;5.27;;;16.30;92.20;;;;;;4988199;28;20212;-70
2022/04/23 07:22:10;;;;;;;6.33;5.53;;;16.40;92.00;;;;;;4971810;28;20211;-70
2022/04/23 07:24:38;;;;;;;5.10;4.60;;;16.60;92.20;;;;;;4988141;28;20216;-70
2022/04/23 07:27:06;;;;;;;4.77;4.33;;;16.80;91.60;;;;;;4989038;28;20246;-70
2022/04/23 07:29:33;;;;;;;5.67;4.63;;;17.00;90.70;;;;;;4990690;28;20220;-70
2022/04/23 07:32:02;;;;;;;4.97;4.43;;;17.10;90.70;;;;;;4969699;28;20217;-70
2022/04/23 07:37:34;;;;;;;6.17;4.63;;;17.40;88.80;;;;;;4988480;28;20234;-70
2022/04/23 07:40:06;;;;;;;6.57;5.47;;;17.50;89.50;;;;;;4989568;28;20236;-70
2022/04/23 07:42:33;;;;;;;7.07;4.83;;;17.60;87.40;;;;;;4969957;28;20683;-70
2022/04/23 07:45:00;;;;;;;3.77;3.47;;;17.70;87.30;;;;;;4989316;28;20652;-71
2022/04/23 07:47:30;;;;;;;3.70;3.40;;;17.80;86.80;;;;;;4994012;28;20244;-71
2022/04/23 07:49:59;;;;;;;4.07;3.77;;;17.90;85.60;;;;;;4972776;28;20219;-70
2022/04/23 07:52:26;;;;;;;4.40;4.00;;;17.90;85.20;;;;;;4987458;28;20194;-70
2022/04/23 07:54:53;;;;;;;4.60;4.20;;;18.00;86.30;;;;;;4984874;28;20211;-70
2022/04/23 07:57:22;;;;;;;4.20;3.80;;;18.10;86.60;;;;;;4987019;28;20528;-70
2022/04/23 07:59:49;;;;;;;3.57;3.27;;;18.10;85.90;;;;;;4986718;28;20210;-70
2022/04/23 08:02:16;;;;;;;3.87;3.57;;;18.20;85.10;;;;;;4984623;28;20266;-70
2022/04/23 08:04:45;;;;;;;4.13;3.63;;;18.20;85.70;;;;;;4984430;28;20268;-70
2022/04/23 08:07:15;;;;;;;7.63;4.30;;;18.10;85.80;;;;;;4986591;28;20229;-70
2022/04/23 08:09:42;;;;;;;4.80;3.73;;;18.10;85.70;;;;;;4964669;28;20781;-70
2022/04/23 08:12:10;;;;;;;4.20;3.90;;;18.20;86.10;;;;;;4970471;28;20205;-70
2022/04/23 08:14:38;;;;;;;3.70;3.40;;;18.30;85.10;;;;;;4965000;28;20227;-70
2022/04/23 08:17:06;;;;;;;3.67;3.37;;;18.40;86.00;;;;;;4965165;28;20223;-70
2022/04/23 08:19:33;;;;;;;3.90;3.07;;;18.60;85.00;;;;;;4966200;28;20206;-70
2022/04/23 08:22:01;;;;;;;2.90;2.70;;;18.80;84.50;;;;;;4967066;28;20246;-70
2022/04/23 08:24:30;;;;;;;4.10;3.20;;;18.80;82.80;;;;;;4966455;28;20633;-70
2022/04/23 08:26:57;;;;;;;5.87;3.10;;;18.90;82.70;;;;;;4964054;28;20238;-70
2022/04/23 08:32:11;;;;;;;6.90;3.40;;;19.10;82.50;;;;;;4968453;28;20225;-70
2022/04/23 08:34:38;;;;;;;4.53;2.87;;;19.30;82.30;;;;;;4969252;28;20703;-70
2022/04/23 08:37:05;;;;;;;3.40;3.10;;;19.40;81.20;;;;;;4964812;28;20219;-70
2022/04/23 08:39:32;;;;;;;3.87;3.00;;;19.50;81.30;;;;;;4967353;28;20712;-70
2022/04/23 08:42:02;;;;;;;3.30;3.00;;;19.70;81.40;;;;;;4967852;28;20206;-70
2022/04/23 08:44:31;;;;;;;3.80;2.83;;;19.80;80.20;;;;;;4984020;28;20250;-70
2022/04/23 08:47:00;;;;;;;5.47;2.63;;;19.90;78.40;;;;;;4953367;28;20219;-70
2022/04/23 08:49:32;;;;;;;3.30;2.97;;;20.10;77.10;;;;;;4950838;28;20202;-70
2022/04/23 08:52:15;;;;;;;2.90;2.67;;;20.20;77.40;;;;;;4964464;28;20537;-70
2022/04/23 08:54:44;;;;;;;3.73;2.30;;;20.30;77.20;;;;;;4957789;28;20269;-70
2022/04/23 08:57:11;;;;;;;3.30;2.70;;;20.40;76.40;;;;;;4967985;28;20214;-70
2022/04/23 08:59:38;;;;;;;3.30;3.00;;;20.50;76.40;;;;;;4960618;28;20242;-70
2022/04/23 09:02:13;;;;;;;4.30;3.30;;;20.60;76.30;;;;;;4962856;28;20657;-70
2022/04/23 09:04:44;;;;;;;4.67;2.90;;;20.70;75.90;;;;;;4949289;28;20243;-70
2022/04/23 09:07:26;;;;;;;3.20;2.90;;;20.60;75.10;;;;;;4965338;28;20726;-70
2022/04/23 09:09:56;;;;;;;4.07;3.03;;;20.70;76.10;;;;;;4978498;28;20244;-70
2022/04/23 09:12:25;;;;;;;4.33;3.33;;;20.80;76.40;;;;;;4983320;28;20560;-70
2022/04/23 09:15:03;;;;;;;3.97;3.20;;;20.90;75.60;;;;;;4981890;28;20333;-70
2022/04/23 09:25:52;;;;;;;3.43;3.13;;;21.40;73.40;;;;;;4984278;28;20232;-70
2022/04/23 09:28:23;;;;;;;3.47;2.50;;;21.50;71.60;;;;;;4984172;28;20226;-70
2022/04/23 09:30:54;;;;;;;3.43;2.50;;;21.40;73.30;;;;;;4983855;28;20223;-70
2022/04/23 09:33:41;;;;;;;2.60;2.40;;;21.40;73.50;;;;;;4982841;28;20275;-70
2022/04/23 09:36:08;;;;;;;3.57;2.70;;;21.40;71.60;;;;;;4965814;28;20216;-70
2022/04/23 09:38:35;;;;;;;3.23;2.40;;;21.40;71.90;;;;;;4985210;28;20227;-70
2022/04/23 09:41:16;;;;;;;3.80;2.93;;;21.40;73.20;;;;;;4982833;28;20708;-70
2022/04/23 09:43:46;;;;;;;2.40;2.27;;;21.40;71.50;;;;;;4949706;28;20640;-70
2022/04/23 09:46:14;;;;;;;3.57;2.73;;;21.30;71.90;;;;;;4977879;28;20235;-70
2022/04/23 09:48:43;;;;;;;4.60;2.87;;;21.20;73.00;;;;;;4983651;28;20558;-70
2022/04/23 09:51:24;;;;;;;3.17;2.63;;;21.20;73.50;;;;;;4967769;28;20215;-70
2022/04/23 09:53:54;;;;;;;3.13;2.90;;;21.10;71.90;;;;;;4977050;28;20682;-70
2022/04/23 09:56:23;;;;;;;2.70;2.50;;;21.00;71.40;;;;;;4986343;28;20221;-70
2022/04/23 09:58:52;;;;;;;4.20;3.03;;;20.90;72.70;;;;;;4982856;28;20670;-70
2022/04/23 10:01:20;;;;;;;5.57;4.27;;;20.90;72.20;;;;;;4982364;28;20396;-70
2022/04/23 10:03:53;;;;;;;8.20;4.67;;;20.70;72.70;;;;;;4966098;28;20220;-70
2022/04/23 10:06:22;;;;;;;9.33;3.70;;;20.70;73.60;;;;;;4982152;28;20230;-70
2022/04/23 10:08:57;;;;;;;8.23;5.00;;;20.70;74.10;;;;;;4967229;28;20216;-70
2022/04/23 10:11:31;;;;;;;10.43;4.77;;;20.70;74.10;;;;;;4973073;28;20242;-70
2022/04/23 10:14:02;;;;;;;5.77;4.50;;;20.80;74.20;;;;;;4984694;28;20717;-70
2022/04/23 10:16:31;;;;;;;3.63;3.33;;;20.80;72.80;;;;;;4983485;28;20208;-70
2022/04/23 10:19:00;;;;;;;5.93;3.90;;;20.80;72.80;;;;;;4980913;28;20658;-70
2022/04/23 10:22:01;;;;;;;8.43;4.87;;;20.90;73.10;;;;;;4982218;28;20211;-70
2022/04/23 10:24:38;;;;;;;5.03;3.47;;;21.00;73.50;;;;;;4982093;28;20221;-70
2022/04/23 10:27:07;;;;;;;8.87;5.17;;;21.10;73.00;;;;;;4966531;28;20290;-70
2022/04/23 10:29:35;;;;;;;3.47;3.17;;;21.20;74.00;;;;;;4983135;28;20223;-69
2022/04/23 10:32:16;;;;;;;4.03;3.63;;;21.30;72.60;;;;;;4982448;28;20287;-69
2022/04/23 10:34:44;;;;;;;4.03;3.63;;;21.30;73.50;;;;;;4983079;28;20204;-69
2022/04/23 10:37:18;;;;;;;8.47;3.97;;;21.30;73.80;;;;;;4980094;28;20212;-70
2022/04/23 10:40:05;;;;;;;3.40;2.60;;;21.40;72.00;;;;;;4985099;28;20279;-70
2022/04/23 10:42:33;;;;;;;2.70;2.30;;;21.50;73.50;;;;;;4985188;28;20623;-70
2022/04/23 10:45:06;;;;;;;3.17;2.47;;;21.60;72.90;;;;;;4986623;28;20271;-70
2022/04/23 10:47:39;;;;;;;3.90;2.70;;;21.70;72.20;;;;;;4981898;28;20228;-70
2022/04/23 10:50:19;;;;;;;3.37;1.90;;;21.80;70.60;;;;;;4985035;28;20212;-70
2022/04/23 10:52:53;;;;;;;1.80;1.70;;;21.80;68.80;;;;;;4962753;28;20217;-70
2022/04/23 10:55:23;;;;;;;11.40;4.27;;;21.90;68.60;;;;;;4965313;28;20224;-70
2022/04/23 10:57:55;;;;;;;5.90;2.33;;;21.90;69.20;;;;;;4982954;28;20575;-70
2022/04/23 11:00:24;;;;;;;10.50;2.90;;;22.00;68.00;;;;;;4980601;28;20221;-70
2022/04/23 11:02:54;;;;;;;29.73;10.53;;;22.00;67.00;;;;;;4982017;28;20607;-70
2022/04/23 11:14:04;;;;;;;11.73;4.37;;;22.10;66.60;;;;;;4987087;28;20659;-70
2022/04/23 11:16:32;;;;;;;21.63;7.23;;;22.20;66.90;;;;;;4983271;28;20205;-70
2022/04/23 11:19:01;;;;;;;53.43;17.60;;;22.30;66.80;;;;;;4983923;28;20536;-70
2022/04/23 11:21:31;;;;;;;3.57;1.80;;;22.40;64.20;;;;;;4980860;28;20263;-71
2022/04/23 11:24:00;;;;;;;3.27;1.50;;;22.50;63.10;;;;;;4944240;28;20248;-71
2022/04/23 11:26:45;;;;;;;3.13;1.33;;;22.60;62.40;;;;;;4990836;28;20328;-71
2022/04/23 11:29:13;;;;;;;1.40;1.20;;;22.60;60.30;;;;;;4987776;28;20204;-71
2022/04/23 11:31:49;;;;;;;1.90;1.00;;;22.70;58.70;;;;;;4976491;28;20208;-71
2022/04/23 11:34:17;;;;;;;1.33;1.10;;;22.70;60.50;;;;;;4985402;28;20255;-71
2022/04/23 11:36:44;;;;;;;1.80;1.40;;;22.80;61.50;;;;;;4987530;28;20200;-71
2022/04/23 11:39:13;;;;;;;1.50;1.40;;;22.80;60.90;;;;;;4987649;28;20208;-70
2022/04/23 11:41:42;;;;;;;1.63;1.20;;;22.80;61.90;;;;;;4969312;28;20520;-71
2022/04/23 11:47:31;;;;;;;1.53;1.33;;;22.80;59.50;;;;;;4964193;28;20452;-71
2022/04/23 11:50:15;;;;;;;1.57;1.30;;;22.70;59.10;;;;;;4974003;28;20220;-71
2022/04/23 11:52:43;;;;;;;1.70;0.90;;;22.70;59.80;;;;;;4985038;28;20312;-70
2022/04/23 11:55:24;;;;;;;3.20;1.00;;;22.80;58.70;;;;;;4985172;28;20228;-70
2022/04/23 11:58:04;;;;;;;1.93;1.17;;;22.80;58.30;;;;;;4987614;28;20679;-70
2022/04/23 12:00:33;;;;;;;1.63;1.03;;;22.80;57.80;;;;;;4993869;28;20223;-70
2022/04/23 12:03:01;;;;;;;1.73;1.20;;;22.80;58.30;;;;;;4978840;28;20695;-71
2022/04/23 12:05:31;;;;;;;1.30;1.20;;;22.70;59.50;;;;;;4988009;28;20280;-71
2022/04/23 12:07:59;;;;;;;1.10;0.80;;;22.60;59.60;;;;;;4994496;28;20238;-71
2022/04/23 12:10:31;;;;;;;2.50;1.10;;;22.50;59.80;;;;;;4985306;28;20534;-71
2022/04/23 12:13:08;;;;;;;2.17;1.00;;;22.50;60.00;;;;;;4991644;28;20243;-70
2022/04/23 12:15:45;;;;;;;4.60;1.90;;;22.40;61.00;;;;;;4986881;28;20212;-70
2022/04/23 12:18:14;;;;;;;1.20;1.10;;;22.30;62.20;;;;;;4987289;28;20216;-71
2022/04/23 12:20:42;;;;;;;3.87;1.60;;;22.20;61.90;;;;;;4986432;28;20212;-71
2022/04/23 12:23:10;;;;;;;44.03;14.33;;;22.20;62.10;;;;;;4987348;28;20224;-70
2022/04/23 12:25:38;;;;;;;52.93;15.37;;;22.00;62.00;;;;;;4971912;28;20215;-70
2022/04/23 12:42:11;;;;;;;1.33;1.00;;;21.80;60.70;;;;;;4985135;28;20211;-70
2022/04/23 12:44:43;;;;;;;2.03;1.00;;;21.90;61.20;;;;;;4956755;28;20244;-70
2022/04/23 12:47:13;;;;;;;5.40;1.33;;;22.00;61.90;;;;;;4977577;28;20228;-70
2022/04/23 12:49:48;;;;;;;1.67;1.33;;;22.20;62.40;;;;;;4983763;28;20209;-70
2022/04/23 12:52:21;;;;;;;1.10;1.00;;;22.30;62.30;;;;;;4991442;28;20258;-70
2022/04/23 12:55:22;;;;;;;4.50;1.10;;;22.50;60.30;;;;;;4986568;28;20282;-70
2022/04/23 12:57:54;;;;;;;2.60;1.10;;;22.50;58.50;;;;;;4975096;28;20206;-71
2022/04/23 13:00:25;;;;;;;1.47;1.13;;;22.60;59.20;;;;;;4986651;28;20733;-70
2022/04/23 13:02:58;;;;;;;1.43;1.07;;;22.70;60.10;;;;;;4985106;28;20208;-70
2022/04/23 13:05:27;;;;;;;1.87;1.27;;;22.60;59.00;;;;;;4985799;28;20196;-70
2022/04/23 13:10:40;;;;;;;2.60;1.27;;;22.60;59.00;;;;;;4965457;28;20236;-70
2022/04/23 13:13:07;;;;;;;3.63;1.40;;;22.60;58.50;;;;;;4983778;28;20241;-70
2022/04/23 13:15:36;;;;;;;2.00;1.23;;;22.60;58.50;;;;;;4984044;28;20564;-71
2022/04/23 13:18:04;;;;;;;5.37;1.27;;;22.50;58.20;;;;;;4969393;28;20259;-70
2022/04/23 13:20:33;;;;;;;2.60;1.40;;;22.50;58.20;;;;;;4981802;28;20211;-70
2022/04/23 13:23:00;;;;;;;4.03;1.10;;;22.50;57.90;;;;;;4988690;28;20204;-70
2022/04/23 13:25:29;;;;;;;2.87;1.10;;;22.40;58.20;;;;;;4984750;28;20216;-70
2022/04/23 13:27:56;;;;;;;2.43;1.03;;;22.30;58.50;;;;;;4989736;28;20731;-71
2022/04/23 13:30:23;;;;;;;1.70;1.60;;;22.10;59.00;;;;;;4969855;28;20220;-70
2022/04/23 13:32:50;;;;;;;1.33;1.10;;;22.00;58.60;;;;;;4982714;28;20217;-70
2022/04/23 13:35:20;;;;;;;1.43;1.03;;;21.80;58.90;;;;;;4967869;28;21162;-70